Terminal Aerodrome Forecast
Issued by NWS

Home | Current Version | Previous Version | Text Only | Print | Product List | Glossary On
Versions: 1 2 3 4 5 6 7 8 9 10 11 12 13 14 15 16 17
172
FTAK31 PAJN 111136
TAFASI
TAF
PASI 111136Z 1112/1212 12015KT P6SM -SHRA BKN040 OVC050
      WS020/17030KT
      TEMPO 1112/1115 -TSRA BKN030CB OVC050
     FM111800 11015KT P6SM VCSH SCT020 BKN050
     FM120100 10012KT P6SM BKN080 WS020/10030KT
     FM121100 10015G25KT P6SM -RA SCT050 OVC080 WS020/12030KT=

USA.gov is the U.S. government's official web portal to all federal, state and local government web resources and services.